sensor_id;sensor_type;location;lat;lon;timestamp;temperature;humidity
41058;DHT22;66768;48.884;2.258;2024-01-15T00:01:22;3.80;99.90
41058;DHT22;66768;48.884;2.258;2024-01-15T00:03:49;3.90;99.90
41058;DHT22;66768;48.884;2.258;2024-01-15T00:06:17;3.90;99.90
41058;DHT22;66768;48.884;2.258;2024-01-15T00:08:44;3.80;99.90
41058;DHT22;66768;48.884;2.258;2024-01-15T00:11:10;3.90;99.90
41058;DHT22;66768;48.884;2.258;2024-01-15T00:13:37;3.80;99.90
41058;DHT22;66768;48.884;2.258;2024-01-15T00:16:04;3.90;99.90
41058;DHT22;66768;48.884;2.258;2024-01-15T00:18:31;3.90;99.90
41058;DHT22;66768;48.884;2.258;2024-01-15T00:20:58;3.90;99.90
41058;DHT22;66768;48.884;2.258;2024-01-15T00:23:26;3.90;99.90
41058;DHT22;66768;48.884;2.258;2024-01-15T00:25:53;3.90;99.90
41058;DHT22;66768;48.884;2.258;2024-01-15T00:28:20;4.00;99.90
41058;DHT22;66768;48.884;2.258;2024-01-15T00:30:47;3.90;99.90
41058;DHT22;66768;48.884;2.258;2024-01-15T00:33:14;4.00;99.90
41058;DHT22;66768;48.884;2.258;2024-01-15T00:35:40;3.90;99.90
41058;DHT22;66768;48.884;2.258;2024-01-15T00:38:07;3.90;99.90
41058;DHT22;66768;48.884;2.258;2024-01-15T00:40:35;4.00;99.90
41058;DHT22;66768;48.884;2.258;2024-01-15T00:43:03;4.00;99.90
41058;DHT22;66768;48.884;2.258;2024-01-15T00:45:30;4.00;99.90
41058;DHT22;66768;48.884;2.258;2024-01-15T00:47:57;4.00;99.90
41058;DHT22;66768;48.884;2.258;2024-01-15T00:50:25;4.00;99.90
41058;DHT22;66768;48.884;2.258;2024-01-15T00:52:52;4.00;99.90
41058;DHT22;66768;48.884;2.258;2024-01-15T00:55:18;4.00;99.90
41058;DHT22;66768;48.884;2.258;2024-01-15T00:57:46;4.00;99.90
41058;DHT22;66768;48.884;2.258;2024-01-15T01:00:14;4.10;99.90
41058;DHT22;66768;48.884;2.258;2024-01-15T01:02:41;4.10;99.90
41058;DHT22;66768;48.884;2.258;2024-01-15T01:05:08;4.10;99.90
41058;DHT22;66768;48.884;2.258;2024-01-15T01:07:35;4.10;99.90
41058;DHT22;66768;48.884;2.258;2024-01-15T01:10:02;4.10;99.90
41058;DHT22;66768;48.884;2.258;2024-01-15T01:12:29;4.10;99.90
41058;DHT22;66768;48.884;2.258;2024-01-15T01:14:57;4.00;99.90
41058;DHT22;66768;48.884;2.258;2024-01-15T01:17:25;4.00;99.90
41058;DHT22;66768;48.884;2.258;2024-01-15T01:19:51;4.10;99.90
41058;DHT22;66768;48.884;2.258;2024-01-15T01:22:18;4.10;99.90
41058;DHT22;66768;48.884;2.258;2024-01-15T01:24:45;4.10;99.90
41058;DHT22;66768;48.884;2.258;2024-01-15T01:27:12;4.10;99.90
41058;DHT22;66768;48.884;2.258;2024-01-15T01:29:39;4.10;99.90
41058;DHT22;66768;48.884;2.258;2024-01-15T01:32:07;4.10;99.90
41058;DHT22;66768;48.884;2.258;2024-01-15T01:34:40;4.10;99.90
41058;DHT22;66768;48.884;2.258;2024-01-15T01:37:07;4.10;99.90
41058;DHT22;66768;48.884;2.258;2024-01-15T01:39:34;4.10;99.90
41058;DHT22;66768;48.884;2.258;2024-01-15T01:42:01;4.10;99.90
41058;DHT22;66768;48.884;2.258;2024-01-15T01:44:28;4.20;99.90
41058;DHT22;66768;48.884;2.258;2024-01-15T01:46:54;4.20;99.90
41058;DHT22;66768;48.884;2.258;2024-01-15T01:49:23;4.20;99.90
41058;DHT22;66768;48.884;2.258;2024-01-15T01:51:51;4.20;99.90
41058;DHT22;66768;48.884;2.258;2024-01-15T01:54:18;4.20;99.90
41058;DHT22;66768;48.884;2.258;2024-01-15T01:56:47;4.20;99.90
41058;DHT22;66768;48.884;2.258;2024-01-15T01:59:14;4.20;99.90
41058;DHT22;66768;48.884;2.258;2024-01-15T02:01:41;4.20;99.90
41058;DHT22;66768;48.884;2.258;2024-01-15T02:04:09;4.20;99.90
41058;DHT22;66768;48.884;2.258;2024-01-15T02:06:38;4.20;99.90
41058;DHT22;66768;48.884;2.258;2024-01-15T02:09:05;4.20;99.90
41058;DHT22;66768;48.884;2.258;2024-01-15T02:11:32;4.20;99.90
41058;DHT22;66768;48.884;2.258;2024-01-15T02:13:58;4.30;99.90
41058;DHT22;66768;48.884;2.258;2024-01-15T02:16:25;4.30;99.90
41058;DHT22;66768;48.884;2.258;2024-01-15T02:18:52;4.20;99.90
41058;DHT22;66768;48.884;2.258;2024-01-15T02:21:19;4.20;99.90
41058;DHT22;66768;48.884;2.258;2024-01-15T02:23:47;4.20;99.90
41058;DHT22;66768;48.884;2.258;2024-01-15T02:26:14;4.20;99.90
41058;DHT22;66768;48.884;2.258;2024-01-15T02:28:41;4.20;99.90
41058;DHT22;66768;48.884;2.258;2024-01-15T02:31:10;4.20;99.90
41058;DHT22;66768;48.884;2.258;2024-01-15T02:33:36;4.30;99.90
41058;DHT22;66768;48.884;2.258;2024-01-15T02:36:04;4.40;99.90
41058;DHT22;66768;48.884;2.258;2024-01-15T02:38:31;4.30;99.90
41058;DHT22;66768;48.884;2.258;2024-01-15T02:40:59;4.30;99.90
41058;DHT22;66768;48.884;2.258;2024-01-15T02:43:26;4.30;99.90
41058;DHT22;66768;48.884;2.258;2024-01-15T02:45:52;4.30;99.90
41058;DHT22;66768;48.884;2.258;2024-01-15T02:48:19;4.30;99.90
41058;DHT22;66768;48.884;2.258;2024-01-15T02:50:46;4.30;99.90
41058;DHT22;66768;48.884;2.258;2024-01-15T02:53:13;4.30;99.90
41058;DHT22;66768;48.884;2.258;2024-01-15T02:55:40;4.20;99.90
41058;DHT22;66768;48.884;2.258;2024-01-15T02:58:08;4.20;99.90
41058;DHT22;66768;48.884;2.258;2024-01-15T03:00:35;4.30;99.90
41058;DHT22;66768;48.884;2.258;2024-01-15T03:03:02;4.30;99.90
41058;DHT22;66768;48.884;2.258;2024-01-15T03:05:29;4.20;99.90
41058;DHT22;66768;48.884;2.258;2024-01-15T03:07:56;4.20;99.90
41058;DHT22;66768;48.884;2.258;2024-01-15T03:10:22;4.30;99.90
41058;DHT22;66768;48.884;2.258;2024-01-15T03:12:49;4.20;99.90
41058;DHT22;66768;48.884;2.258;2024-01-15T03:15:17;4.30;99.90
41058;DHT22;66768;48.884;2.258;2024-01-15T03:17:44;4.30;99.90
41058;DHT22;66768;48.884;2.258;2024-01-15T03:20:11;4.30;99.90
41058;DHT22;66768;48.884;2.258;2024-01-15T03:22:38;4.30;99.90
41058;DHT22;66768;48.884;2.258;2024-01-15T03:25:06;4.30;99.90
41058;DHT22;66768;48.884;2.258;2024-01-15T03:27:33;4.30;99.90
41058;DHT22;66768;48.884;2.258;2024-01-15T03:30:00;4.30;99.90
41058;DHT22;66768;48.884;2.258;2024-01-15T03:32:29;4.30;99.90
41058;DHT22;66768;48.884;2.258;2024-01-15T03:34:56;4.30;99.90
41058;DHT22;66768;48.884;2.258;2024-01-15T03:37:23;4.30;99.90
41058;DHT22;66768;48.884;2.258;2024-01-15T03:39:49;4.30;99.90
41058;DHT22;66768;48.884;2.258;2024-01-15T03:42:16;4.30;99.90
41058;DHT22;66768;48.884;2.258;2024-01-15T03:44:43;4.30;99.90
41058;DHT22;66768;48.884;2.258;2024-01-15T03:47:10;4.30;99.90
41058;DHT22;66768;48.884;2.258;2024-01-15T03:49:38;4.30;99.90
41058;DHT22;66768;48.884;2.258;2024-01-15T03:52:05;4.30;99.90
41058;DHT22;66768;48.884;2.258;2024-01-15T03:54:32;4.30;99.90
41058;DHT22;66768;48.884;2.258;2024-01-15T03:56:59;4.30;99.90
41058;DHT22;66768;48.884;2.258;2024-01-15T03:59:26;4.20;99.90
41058;DHT22;66768;48.884;2.258;2024-01-15T04:01:53;4.20;99.90
41058;DHT22;66768;48.884;2.258;2024-01-15T04:04:20;4.10;99.90
41058;DHT22;66768;48.884;2.258;2024-01-15T04:06:48;4.20;99.90
41058;DHT22;66768;48.884;2.258;2024-01-15T04:09:15;4.20;99.90
41058;DHT22;66768;48.884;2.258;2024-01-15T04:11:41;4.10;99.90
41058;DHT22;66768;48.884;2.258;2024-01-15T04:14:08;4.10;99.90
41058;DHT22;66768;48.884;2.258;2024-01-15T04:16:35;4.20;99.90
41058;DHT22;66768;48.884;2.258;2024-01-15T04:19:01;4.20;99.90
41058;DHT22;66768;48.884;2.258;2024-01-15T04:21:28;4.20;99.90
41058;DHT22;66768;48.884;2.258;2024-01-15T04:23:56;4.20;99.90
41058;DHT22;66768;48.884;2.258;2024-01-15T04:26:23;4.20;99.90
41058;DHT22;66768;48.884;2.258;2024-01-15T04:28:50;4.30;99.90
41058;DHT22;66768;48.884;2.258;2024-01-15T04:31:24;4.30;99.90
41058;DHT22;66768;48.884;2.258;2024-01-15T04:33:52;4.20;99.90
41058;DHT22;66768;48.884;2.258;2024-01-15T04:36:19;4.20;99.90
41058;DHT22;66768;48.884;2.258;2024-01-15T04:38:46;4.20;99.90
41058;DHT22;66768;48.884;2.258;2024-01-15T04:41:14;4.20;99.90
41058;DHT22;66768;48.884;2.258;2024-01-15T04:43:42;4.20;99.90
41058;DHT22;66768;48.884;2.258;2024-01-15T04:46:09;4.20;99.90
41058;DHT22;66768;48.884;2.258;2024-01-15T04:48:36;4.20;99.90
41058;DHT22;66768;48.884;2.258;2024-01-15T04:51:04;4.30;99.90
41058;DHT22;66768;48.884;2.258;2024-01-15T04:53:32;4.30;99.90
41058;DHT22;66768;48.884;2.258;2024-01-15T04:55:58;4.30;99.90
41058;DHT22;66768;48.884;2.258;2024-01-15T04:58:26;4.30;99.90
41058;DHT22;66768;48.884;2.258;2024-01-15T05:00:53;4.30;99.90
41058;DHT22;66768;48.884;2.258;2024-01-15T05:03:20;4.30;99.90
41058;DHT22;66768;48.884;2.258;2024-01-15T05:05:47;4.30;99.90
41058;DHT22;66768;48.884;2.258;2024-01-15T05:08:14;4.30;99.90
41058;DHT22;66768;48.884;2.258;2024-01-15T05:10:41;4.30;99.90
41058;DHT22;66768;48.884;2.258;2024-01-15T05:13:08;4.40;99.90
41058;DHT22;66768;48.884;2.258;2024-01-15T05:15:36;4.40;99.90
41058;DHT22;66768;48.884;2.258;2024-01-15T05:18:03;4.40;99.90
41058;DHT22;66768;48.884;2.258;2024-01-15T05:20:30;4.50;99.90
41058;DHT22;66768;48.884;2.258;2024-01-15T05:22:56;4.50;99.90
41058;DHT22;66768;48.884;2.258;2024-01-15T05:25:23;4.50;99.90
41058;DHT22;66768;48.884;2.258;2024-01-15T05:27:50;4.40;99.90
41058;DHT22;66768;48.884;2.258;2024-01-15T05:30:17;4.40;99.90
41058;DHT22;66768;48.884;2.258;2024-01-15T05:32:45;4.40;99.90
41058;DHT22;66768;48.884;2.258;2024-01-15T05:35:12;4.50;99.90
41058;DHT22;66768;48.884;2.258;2024-01-15T05:37:43;4.50;99.90
41058;DHT22;66768;48.884;2.258;2024-01-15T05:40:11;4.40;99.90
41058;DHT22;66768;48.884;2.258;2024-01-15T05:42:38;4.50;99.90
41058;DHT22;66768;48.884;2.258;2024-01-15T05:45:05;4.50;99.90
41058;DHT22;66768;48.884;2.258;2024-01-15T05:47:32;4.50;99.90
41058;DHT22;66768;48.884;2.258;2024-01-15T05:50:01;4.40;99.90
41058;DHT22;66768;48.884;2.258;2024-01-15T05:52:28;4.40;99.90
41058;DHT22;66768;48.884;2.258;2024-01-15T05:54:54;4.40;99.90
41058;DHT22;66768;48.884;2.258;2024-01-15T05:57:22;4.40;99.90
41058;DHT22;66768;48.884;2.258;2024-01-15T05:59:49;4.50;99.90
41058;DHT22;66768;48.884;2.258;2024-01-15T06:02:16;4.40;99.90
41058;DHT22;66768;48.884;2.258;2024-01-15T06:04:43;4.50;99.90
41058;DHT22;66768;48.884;2.258;2024-01-15T06:07:11;4.50;99.90
41058;DHT22;66768;48.884;2.258;2024-01-15T06:09:38;4.50;99.90
41058;DHT22;66768;48.884;2.258;2024-01-15T06:12:06;4.50;99.90
41058;DHT22;66768;48.884;2.258;2024-01-15T06:14:33;4.60;99.90
41058;DHT22;66768;48.884;2.258;2024-01-15T06:17:00;4.40;99.90
41058;DHT22;66768;48.884;2.258;2024-01-15T06:19:27;4.50;99.90
41058;DHT22;66768;48.884;2.258;2024-01-15T06:21:54;4.50;99.90
41058;DHT22;66768;48.884;2.258;2024-01-15T06:24:22;4.60;99.90
41058;DHT22;66768;48.884;2.258;2024-01-15T06:26:49;4.60;99.90
41058;DHT22;66768;48.884;2.258;2024-01-15T06:29:15;4.60;99.90
41058;DHT22;66768;48.884;2.258;2024-01-15T06:31:42;4.60;99.90
41058;DHT22;66768;48.884;2.258;2024-01-15T06:34:09;4.60;99.90
41058;DHT22;66768;48.884;2.258;2024-01-15T06:36:36;4.60;99.90
41058;DHT22;66768;48.884;2.258;2024-01-15T06:39:03;4.60;99.90
41058;DHT22;66768;48.884;2.258;2024-01-15T06:41:32;4.60;99.90
41058;DHT22;66768;48.884;2.258;2024-01-15T06:43:58;4.60;99.90
41058;DHT22;66768;48.884;2.258;2024-01-15T06:46:25;4.60;99.90
41058;DHT22;66768;48.884;2.258;2024-01-15T06:48:52;4.60;99.90
41058;DHT22;66768;48.884;2.258;2024-01-15T06:51:19;4.70;99.90
41058;DHT22;66768;48.884;2.258;2024-01-15T06:53:46;4.60;99.90
41058;DHT22;66768;48.884;2.258;2024-01-15T06:56:12;4.60;99.90
41058;DHT22;66768;48.884;2.258;2024-01-15T06:58:40;4.60;99.90
41058;DHT22;66768;48.884;2.258;2024-01-15T07:01:07;4.60;99.90
41058;DHT22;66768;48.884;2.258;2024-01-15T07:03:34;4.70;99.90
41058;DHT22;66768;48.884;2.258;2024-01-15T07:06:01;4.70;99.90
41058;DHT22;66768;48.884;2.258;2024-01-15T07:08:28;4.70;99.90
41058;DHT22;66768;48.884;2.258;2024-01-15T07:10:55;4.60;99.90
41058;DHT22;66768;48.884;2.258;2024-01-15T07:13:22;4.70;99.90
41058;DHT22;66768;48.884;2.258;2024-01-15T07:15:50;4.60;99.90
41058;DHT22;66768;48.884;2.258;2024-01-15T07:18:17;4.60;99.90
41058;DHT22;66768;48.884;2.258;2024-01-15T07:20:43;4.60;99.90
41058;DHT22;66768;48.884;2.258;2024-01-15T07:23:10;4.70;99.90
41058;DHT22;66768;48.884;2.258;2024-01-15T07:25:37;4.60;99.90
41058;DHT22;66768;48.884;2.258;2024-01-15T07:28:05;4.70;99.90
41058;DHT22;66768;48.884;2.258;2024-01-15T07:30:31;4.60;99.90
41058;DHT22;66768;48.884;2.258;2024-01-15T07:33:00;4.70;99.90
41058;DHT22;66768;48.884;2.258;2024-01-15T07:35:26;4.70;99.90
41058;DHT22;66768;48.884;2.258;2024-01-15T07:37:53;4.70;99.90
41058;DHT22;66768;48.884;2.258;2024-01-15T07:40:20;4.70;99.90
41058;DHT22;66768;48.884;2.258;2024-01-15T07:42:47;4.70;99.90
41058;DHT22;66768;48.884;2.258;2024-01-15T07:45:14;4.70;99.90
41058;DHT22;66768;48.884;2.258;2024-01-15T07:47:40;4.70;99.90
41058;DHT22;66768;48.884;2.258;2024-01-15T07:50:09;4.70;99.90
41058;DHT22;66768;48.884;2.258;2024-01-15T07:52:35;4.70;99.90
41058;DHT22;66768;48.884;2.258;2024-01-15T07:55:03;4.80;99.90
41058;DHT22;66768;48.884;2.258;2024-01-15T07:57:30;4.70;99.90
41058;DHT22;66768;48.884;2.258;2024-01-15T07:59:57;4.70;99.90
41058;DHT22;66768;48.884;2.258;2024-01-15T08:02:24;4.70;99.90
41058;DHT22;66768;48.884;2.258;2024-01-15T08:04:51;4.70;99.90
41058;DHT22;66768;48.884;2.258;2024-01-15T08:07:19;4.70;99.90
41058;DHT22;66768;48.884;2.258;2024-01-15T08:09:46;4.80;99.90
41058;DHT22;66768;48.884;2.258;2024-01-15T08:12:14;4.70;99.90
41058;DHT22;66768;48.884;2.258;2024-01-15T08:14:41;4.80;99.90
41058;DHT22;66768;48.884;2.258;2024-01-15T08:17:08;4.80;99.90
41058;DHT22;66768;48.884;2.258;2024-01-15T08:19:34;4.70;99.90
41058;DHT22;66768;48.884;2.258;2024-01-15T08:22:01;4.80;99.90
41058;DHT22;66768;48.884;2.258;2024-01-15T08:24:30;4.80;99.90
41058;DHT22;66768;48.884;2.258;2024-01-15T08:26:57;4.80;99.90
41058;DHT22;66768;48.884;2.258;2024-01-15T08:29:24;4.90;99.90
41058;DHT22;66768;48.884;2.258;2024-01-15T08:31:51;4.90;99.90
41058;DHT22;66768;48.884;2.258;2024-01-15T08:34:18;4.80;99.90
41058;DHT22;66768;48.884;2.258;2024-01-15T08:36:44;4.80;99.90
41058;DHT22;66768;48.884;2.258;2024-01-15T08:39:11;4.90;99.90
41058;DHT22;66768;48.884;2.258;2024-01-15T08:41:39;4.90;99.90
41058;DHT22;66768;48.884;2.258;2024-01-15T08:44:06;4.90;99.90
41058;DHT22;66768;48.884;2.258;2024-01-15T08:46:33;4.90;99.90
41058;DHT22;66768;48.884;2.258;2024-01-15T08:49:00;5.00;99.90
41058;DHT22;66768;48.884;2.258;2024-01-15T08:51:27;5.00;99.90
41058;DHT22;66768;48.884;2.258;2024-01-15T08:53:54;5.00;99.90
41058;DHT22;66768;48.884;2.258;2024-01-15T08:56:21;5.00;99.90
41058;DHT22;66768;48.884;2.258;2024-01-15T08:58:49;5.00;99.90
41058;DHT22;66768;48.884;2.258;2024-01-15T09:01:16;5.00;99.90
41058;DHT22;66768;48.884;2.258;2024-01-15T09:03:43;5.00;99.90
41058;DHT22;66768;48.884;2.258;2024-01-15T09:06:10;5.00;99.90
41058;DHT22;66768;48.884;2.258;2024-01-15T09:08:37;5.00;99.90
41058;DHT22;66768;48.884;2.258;2024-01-15T09:11:04;5.10;99.90
41058;DHT22;66768;48.884;2.258;2024-01-15T09:13:31;5.10;99.90
41058;DHT22;66768;48.884;2.258;2024-01-15T09:15:59;5.10;99.90
41058;DHT22;66768;48.884;2.258;2024-01-15T09:18:26;5.20;99.90
41058;DHT22;66768;48.884;2.258;2024-01-15T09:20:53;5.20;99.90
41058;DHT22;66768;48.884;2.258;2024-01-15T09:23:20;5.30;99.90
41058;DHT22;66768;48.884;2.258;2024-01-15T09:25:46;5.30;99.90
41058;DHT22;66768;48.884;2.258;2024-01-15T09:28:14;5.30;99.90
41058;DHT22;66768;48.884;2.258;2024-01-15T09:30:41;5.30;99.90
41058;DHT22;66768;48.884;2.258;2024-01-15T09:33:09;5.30;99.90
41058;DHT22;66768;48.884;2.258;2024-01-15T09:35:36;5.30;99.90
41058;DHT22;66768;48.884;2.258;2024-01-15T09:38:03;5.30;99.90
41058;DHT22;66768;48.884;2.258;2024-01-15T09:40:32;5.30;99.90
41058;DHT22;66768;48.884;2.258;2024-01-15T09:43:00;5.30;99.90
41058;DHT22;66768;48.884;2.258;2024-01-15T09:45:28;5.30;99.90
41058;DHT22;66768;48.884;2.258;2024-01-15T09:47:56;5.30;99.90
41058;DHT22;66768;48.884;2.258;2024-01-15T09:50:24;5.30;99.90
41058;DHT22;66768;48.884;2.258;2024-01-15T09:52:52;5.30;99.90
41058;DHT22;66768;48.884;2.258;2024-01-15T09:55:19;5.40;99.90
41058;DHT22;66768;48.884;2.258;2024-01-15T09:57:46;5.50;99.90
41058;DHT22;66768;48.884;2.258;2024-01-15T10:00:13;5.50;99.90
41058;DHT22;66768;48.884;2.258;2024-01-15T10:02:41;5.50;99.90
41058;DHT22;66768;48.884;2.258;2024-01-15T10:05:08;5.50;99.90
41058;DHT22;66768;48.884;2.258;2024-01-15T10:07:37;5.50;99.90
41058;DHT22;66768;48.884;2.258;2024-01-15T10:10:05;5.50;99.90
41058;DHT22;66768;48.884;2.258;2024-01-15T10:12:32;5.50;99.90
41058;DHT22;66768;48.884;2.258;2024-01-15T10:14:59;5.50;99.90
41058;DHT22;66768;48.884;2.258;2024-01-15T10:17:26;5.50;99.90
41058;DHT22;66768;48.884;2.258;2024-01-15T10:19:53;5.60;99.90
41058;DHT22;66768;48.884;2.258;2024-01-15T10:22:20;5.60;99.90
41058;DHT22;66768;48.884;2.258;2024-01-15T10:24:48;5.60;99.90
41058;DHT22;66768;48.884;2.258;2024-01-15T10:27:15;5.60;99.90
41058;DHT22;66768;48.884;2.258;2024-01-15T10:29:42;5.70;99.90
41058;DHT22;66768;48.884;2.258;2024-01-15T10:32:10;5.60;99.90
41058;DHT22;66768;48.884;2.258;2024-01-15T10:34:38;5.70;99.90
41058;DHT22;66768;48.884;2.258;2024-01-15T10:37:07;5.70;99.90
41058;DHT22;66768;48.884;2.258;2024-01-15T10:39:34;5.70;99.90
41058;DHT22;66768;48.884;2.258;2024-01-15T10:42:03;5.70;99.90
41058;DHT22;66768;48.884;2.258;2024-01-15T10:44:30;5.70;99.90
41058;DHT22;66768;48.884;2.258;2024-01-15T10:46:57;5.70;99.90
41058;DHT22;66768;48.884;2.258;2024-01-15T10:49:24;5.70;99.90
41058;DHT22;66768;48.884;2.258;2024-01-15T10:51:53;5.70;99.90
41058;DHT22;66768;48.884;2.258;2024-01-15T10:54:21;5.70;99.90
41058;DHT22;66768;48.884;2.258;2024-01-15T10:56:49;5.80;99.90
41058;DHT22;66768;48.884;2.258;2024-01-15T10:59:20;5.80;99.90
41058;DHT22;66768;48.884;2.258;2024-01-15T11:01:47;5.80;99.90
41058;DHT22;66768;48.884;2.258;2024-01-15T11:04:14;5.80;99.90
41058;DHT22;66768;48.884;2.258;2024-01-15T11:06:43;5.90;99.90
41058;DHT22;66768;48.884;2.258;2024-01-15T11:09:12;5.90;99.90
41058;DHT22;66768;48.884;2.258;2024-01-15T11:11:41;5.90;99.90
41058;DHT22;66768;48.884;2.258;2024-01-15T11:14:08;5.90;99.90
41058;DHT22;66768;48.884;2.258;2024-01-15T11:16:56;5.90;99.90
41058;DHT22;66768;48.884;2.258;2024-01-15T11:19:25;5.90;99.90
41058;DHT22;66768;48.884;2.258;2024-01-15T11:21:52;5.90;99.90
41058;DHT22;66768;48.884;2.258;2024-01-15T11:24:37;6.00;99.90
41058;DHT22;66768;48.884;2.258;2024-01-15T11:27:05;5.90;99.90
41058;DHT22;66768;48.884;2.258;2024-01-15T11:29:33;6.00;99.90
41058;DHT22;66768;48.884;2.258;2024-01-15T11:32:06;6.00;99.90
41058;DHT22;66768;48.884;2.258;2024-01-15T11:34:53;6.00;99.90
41058;DHT22;66768;48.884;2.258;2024-01-15T11:37:20;5.90;99.90
41058;DHT22;66768;48.884;2.258;2024-01-15T11:39:51;5.90;99.90
41058;DHT22;66768;48.884;2.258;2024-01-15T11:42:17;6.20;99.90
41058;DHT22;66768;48.884;2.258;2024-01-15T11:44:46;5.90;99.90
41058;DHT22;66768;48.884;2.258;2024-01-15T11:47:14;5.90;99.90
41058;DHT22;66768;48.884;2.258;2024-01-15T11:49:59;5.90;99.90
41058;DHT22;66768;48.884;2.258;2024-01-15T11:52:27;6.00;99.90
41058;DHT22;66768;48.884;2.258;2024-01-15T11:55:01;6.00;99.90
41058;DHT22;66768;48.884;2.258;2024-01-15T11:57:37;6.00;99.90
41058;DHT22;66768;48.884;2.258;2024-01-15T12:00:06;6.10;99.90
41058;DHT22;66768;48.884;2.258;2024-01-15T12:02:35;6.00;99.90
41058;DHT22;66768;48.884;2.258;2024-01-15T12:05:03;6.10;99.90
41058;DHT22;66768;48.884;2.258;2024-01-15T12:07:30;6.10;99.90
41058;DHT22;66768;48.884;2.258;2024-01-15T12:09:57;6.00;99.90
41058;DHT22;66768;48.884;2.258;2024-01-15T12:12:29;6.00;99.90
41058;DHT22;66768;48.884;2.258;2024-01-15T12:15:00;6.10;99.90
41058;DHT22;66768;48.884;2.258;2024-01-15T12:17:27;6.10;99.90
41058;DHT22;66768;48.884;2.258;2024-01-15T12:19:55;6.10;99.90
41058;DHT22;66768;48.884;2.258;2024-01-15T12:22:23;6.10;99.90
41058;DHT22;66768;48.884;2.258;2024-01-15T12:24:50;6.10;99.90
41058;DHT22;66768;48.884;2.258;2024-01-15T12:27:16;6.00;99.90
41058;DHT22;66768;48.884;2.258;2024-01-15T12:29:43;6.10;99.90
41058;DHT22;66768;48.884;2.258;2024-01-15T12:32:12;6.10;99.90
41058;DHT22;66768;48.884;2.258;2024-01-15T12:34:39;6.10;99.90
41058;DHT22;66768;48.884;2.258;2024-01-15T12:37:08;6.10;99.90
41058;DHT22;66768;48.884;2.258;2024-01-15T12:39:36;6.10;99.90
41058;DHT22;66768;48.884;2.258;2024-01-15T12:42:03;6.10;99.90
41058;DHT22;66768;48.884;2.258;2024-01-15T12:44:31;6.10;99.90
41058;DHT22;66768;48.884;2.258;2024-01-15T12:46:58;6.10;99.90
41058;DHT22;66768;48.884;2.258;2024-01-15T12:49:25;6.20;99.90
41058;DHT22;66768;48.884;2.258;2024-01-15T12:51:52;6.10;99.90
41058;DHT22;66768;48.884;2.258;2024-01-15T12:54:22;6.20;99.90
41058;DHT22;66768;48.884;2.258;2024-01-15T12:56:49;6.20;99.90
41058;DHT22;66768;48.884;2.258;2024-01-15T12:59:16;6.20;99.90
41058;DHT22;66768;48.884;2.258;2024-01-15T13:01:43;6.20;99.90
41058;DHT22;66768;48.884;2.258;2024-01-15T13:04:11;6.20;99.90
41058;DHT22;66768;48.884;2.258;2024-01-15T13:06:37;6.20;99.90
41058;DHT22;66768;48.884;2.258;2024-01-15T13:09:04;6.30;99.90
41058;DHT22;66768;48.884;2.258;2024-01-15T13:11:33;6.20;99.90
41058;DHT22;66768;48.884;2.258;2024-01-15T13:14:00;6.20;99.90
41058;DHT22;66768;48.884;2.258;2024-01-15T13:16:27;6.20;99.90
41058;DHT22;66768;48.884;2.258;2024-01-15T13:18:54;6.20;99.90
41058;DHT22;66768;48.884;2.258;2024-01-15T13:21:22;6.20;99.90
41058;DHT22;66768;48.884;2.258;2024-01-15T13:23:48;6.20;99.90
41058;DHT22;66768;48.884;2.258;2024-01-15T13:26:15;6.30;99.90
41058;DHT22;66768;48.884;2.258;2024-01-15T13:28:45;6.30;99.90
41058;DHT22;66768;48.884;2.258;2024-01-15T13:31:12;6.30;99.90
41058;DHT22;66768;48.884;2.258;2024-01-15T13:33:39;6.30;99.90
41058;DHT22;66768;48.884;2.258;2024-01-15T13:36:06;6.30;99.90
41058;DHT22;66768;48.884;2.258;2024-01-15T13:38:36;6.20;99.90
41058;DHT22;66768;48.884;2.258;2024-01-15T13:41:04;6.20;99.90
41058;DHT22;66768;48.884;2.258;2024-01-15T13:43:31;6.20;99.90
41058;DHT22;66768;48.884;2.258;2024-01-15T13:46:00;6.20;99.90
41058;DHT22;66768;48.884;2.258;2024-01-15T13:48:30;6.10;99.90
41058;DHT22;66768;48.884;2.258;2024-01-15T13:50:57;6.10;99.80
41058;DHT22;66768;48.884;2.258;2024-01-15T13:53:24;6.10;99.90
41058;DHT22;66768;48.884;2.258;2024-01-15T13:55:51;6.10;99.90
41058;DHT22;66768;48.884;2.258;2024-01-15T13:58:18;6.20;99.90
41058;DHT22;66768;48.884;2.258;2024-01-15T14:00:47;6.20;99.90
41058;DHT22;66768;48.884;2.258;2024-01-15T14:03:15;6.20;99.90
41058;DHT22;66768;48.884;2.258;2024-01-15T14:05:42;6.20;99.90
41058;DHT22;66768;48.884;2.258;2024-01-15T14:08:09;6.20;99.90
41058;DHT22;66768;48.884;2.258;2024-01-15T14:10:36;6.30;99.90
41058;DHT22;66768;48.884;2.258;2024-01-15T14:13:03;6.30;99.90
41058;DHT22;66768;48.884;2.258;2024-01-15T14:15:30;6.30;99.90
41058;DHT22;66768;48.884;2.258;2024-01-15T14:17:57;6.30;99.90
41058;DHT22;66768;48.884;2.258;2024-01-15T14:20:26;6.30;99.90
41058;DHT22;66768;48.884;2.258;2024-01-15T14:22:52;6.30;99.90
41058;DHT22;66768;48.884;2.258;2024-01-15T14:25:19;6.30;99.90
41058;DHT22;66768;48.884;2.258;2024-01-15T14:27:46;6.30;99.90
41058;DHT22;66768;48.884;2.258;2024-01-15T14:30:13;6.30;99.90
41058;DHT22;66768;48.884;2.258;2024-01-15T14:32:41;6.30;99.90
41058;DHT22;66768;48.884;2.258;2024-01-15T14:35:08;6.30;99.90
41058;DHT22;66768;48.884;2.258;2024-01-15T14:37:38;6.40;99.90
41058;DHT22;66768;48.884;2.258;2024-01-15T14:40:05;6.40;99.90
41058;DHT22;66768;48.884;2.258;2024-01-15T14:42:34;6.30;99.50
41058;DHT22;66768;48.884;2.258;2024-01-15T14:45:00;6.30;99.60
41058;DHT22;66768;48.884;2.258;2024-01-15T14:47:28;6.30;99.10
41058;DHT22;66768;48.884;2.258;2024-01-15T14:49:55;6.30;98.70
41058;DHT22;66768;48.884;2.258;2024-01-15T14:52:23;6.30;98.20
41058;DHT22;66768;48.884;2.258;2024-01-15T14:54:51;6.30;98.40
41058;DHT22;66768;48.884;2.258;2024-01-15T14:57:18;6.30;98.20
41058;DHT22;66768;48.884;2.258;2024-01-15T14:59:45;6.30;98.60
41058;DHT22;66768;48.884;2.258;2024-01-15T15:02:11;6.20;98.70
41058;DHT22;66768;48.884;2.258;2024-01-15T15:04:39;6.30;99.00
41058;DHT22;66768;48.884;2.258;2024-01-15T15:07:07;6.20;98.90
41058;DHT22;66768;48.884;2.258;2024-01-15T15:09:33;6.10;99.10
41058;DHT22;66768;48.884;2.258;2024-01-15T15:12:05;6.20;99.20
41058;DHT22;66768;48.884;2.258;2024-01-15T15:14:32;6.20;99.40
41058;DHT22;66768;48.884;2.258;2024-01-15T15:17:03;6.20;99.30
41058;DHT22;66768;48.884;2.258;2024-01-15T15:19:30;6.20;99.30
41058;DHT22;66768;48.884;2.258;2024-01-15T15:21:57;6.20;99.20
41058;DHT22;66768;48.884;2.258;2024-01-15T15:24:24;6.20;98.90
41058;DHT22;66768;48.884;2.258;2024-01-15T15:26:51;6.10;99.20
41058;DHT22;66768;48.884;2.258;2024-01-15T15:29:19;6.10;98.90
41058;DHT22;66768;48.884;2.258;2024-01-15T15:31:46;6.10;99.00
41058;DHT22;66768;48.884;2.258;2024-01-15T15:34:14;6.10;99.20
41058;DHT22;66768;48.884;2.258;2024-01-15T15:36:42;6.10;99.40
41058;DHT22;66768;48.884;2.258;2024-01-15T15:39:08;6.10;99.20
41058;DHT22;66768;48.884;2.258;2024-01-15T15:41:35;6.10;99.30
41058;DHT22;66768;48.884;2.258;2024-01-15T15:44:03;6.10;99.40
41058;DHT22;66768;48.884;2.258;2024-01-15T15:46:31;6.10;99.50